createdAt,value
2018-03-16T00:11:16.152Z,91.60
2018-03-16T00:13:43.816Z,91.70
2018-03-16T00:16:12.142Z,91.80
2018-03-16T00:18:39.652Z,91.80
2018-03-16T00:21:07.941Z,91.90
2018-03-16T00:23:35.477Z,91.90
2018-03-16T00:26:03.809Z,92.10
2018-03-16T00:45:35.065Z,92.20
2018-03-16T00:48:02.583Z,92.20
2018-03-16T00:50:30.261Z,92.20
2018-03-16T00:52:57.740Z,92.20
2018-03-16T00:55:25.294Z,92.30
2018-03-16T01:14:57.332Z,92.50
2018-03-16T01:17:25.595Z,92.90
2018-03-16T01:19:53.067Z,92.50
2018-03-16T01:22:21.377Z,92.70
2018-03-16T01:24:48.948Z,92.70
2018-03-16T01:27:16.433Z,92.80
2018-03-16T01:29:43.925Z,92.80
2018-03-16T01:32:11.489Z,92.90
2018-03-16T01:34:38.968Z,92.90
2018-03-16T01:37:06.551Z,93.00
2018-03-16T01:39:34.931Z,93.00
2018-03-16T01:59:07.279Z,93.10
2018-03-16T02:01:35.614Z,93.10
2018-03-16T02:04:03.139Z,93.10
2018-03-16T02:06:30.647Z,93.40
2018-03-16T02:08:58.297Z,93.20
2018-03-16T02:11:25.822Z,93.20
2018-03-16T02:13:54.121Z,93.30
2018-03-16T02:16:21.617Z,93.20
2018-03-16T02:18:49.102Z,93.30
2018-03-16T02:21:16.691Z,93.30
2018-03-16T02:23:44.194Z,93.40
2018-03-16T02:26:11.763Z,93.40
2018-03-16T02:28:40.154Z,93.50
2018-03-16T02:31:08.409Z,93.50
2018-03-16T02:33:35.930Z,93.40
2018-03-16T02:36:03.627Z,93.50
2018-03-16T02:38:31.133Z,93.40
2018-03-16T02:40:59.343Z,93.50
2018-03-16T03:00:31.332Z,93.60
2018-03-16T03:02:58.807Z,93.60
2018-03-16T03:05:27.119Z,93.80
2018-03-16T03:07:54.618Z,93.70
2018-03-16T03:10:22.153Z,93.70
2018-03-16T03:12:49.672Z,93.80
2018-03-16T03:15:18.066Z,93.80
2018-03-16T03:17:46.303Z,94.10
2018-03-16T03:20:13.865Z,93.80
2018-03-16T03:22:41.373Z,93.80
2018-03-16T03:25:08.890Z,93.80
2018-03-16T03:27:36.376Z,93.90
2018-03-16T03:30:03.860Z,94.20
2018-03-16T03:32:31.397Z,93.90
2018-03-16T03:34:58.945Z,93.80
2018-03-16T03:37:26.426Z,93.90
2018-03-16T03:39:54.890Z,93.90
2018-03-16T03:42:22.705Z,93.90
2018-03-16T04:01:54.358Z,93.90
2018-03-16T04:04:21.843Z,93.90
2018-03-16T04:06:49.333Z,93.90
2018-03-16T04:09:17.618Z,94.00
2018-03-16T04:11:45.857Z,94.00
2018-03-16T04:14:13.451Z,94.00
2018-03-16T04:16:41.711Z,94.00
2018-03-16T04:19:09.186Z,94.00
2018-03-16T04:21:37.750Z,94.00
2018-03-16T04:24:05.230Z,94.00
2018-03-16T04:43:38.087Z,94.10
2018-03-16T04:46:05.683Z,94.10
2018-03-16T04:48:33.933Z,94.20
2018-03-16T04:51:01.432Z,94.20
2018-03-16T04:53:28.956Z,94.20
2018-03-16T04:55:56.537Z,94.30
2018-03-16T04:58:24.791Z,94.40
2018-03-16T05:18:01.083Z,94.40
2018-03-16T05:20:28.733Z,94.40
2018-03-16T05:22:56.328Z,94.40
2018-03-16T05:25:23.850Z,94.40
2018-03-16T05:27:51.326Z,94.50
2018-03-16T05:30:19.597Z,94.60
2018-03-16T05:32:47.917Z,94.60
2018-03-16T05:35:15.458Z,94.50
2018-03-16T05:37:43.734Z,94.60
2018-03-16T05:40:12.185Z,94.60
2018-03-16T05:42:40.472Z,94.60
2018-03-16T05:45:07.997Z,94.60
2018-03-16T05:47:35.474Z,94.70
2018-03-16T05:50:03.311Z,94.70
2018-03-16T05:52:31.558Z,94.70
2018-03-16T05:54:59.036Z,94.70
2018-03-16T05:57:27.953Z,94.70
2018-03-16T05:59:55.472Z,94.80
2018-03-16T06:02:22.949Z,94.80
2018-03-16T06:04:50.462Z,94.80
2018-03-16T06:07:18.723Z,94.80
2018-03-16T06:09:46.181Z,94.80
2018-03-16T06:12:15.066Z,94.80
2018-03-16T06:14:42.524Z,94.90
2018-03-16T06:17:10.082Z,94.90
2018-03-16T06:19:37.564Z,94.90
2018-03-16T06:22:05.826Z,95.00
2018-03-16T06:27:27.644Z,95.00
2018-03-16T06:29:55.438Z,95.00
2018-03-16T06:32:22.893Z,95.00
2018-03-16T06:34:54.252Z,95.00
2018-03-16T06:37:22.513Z,95.00
2018-03-16T06:39:50.074Z,95.00
2018-03-16T06:42:17.553Z,95.00
2018-03-16T06:44:46.015Z,95.00
2018-03-16T06:47:13.342Z,95.00
2018-03-16T06:49:40.888Z,95.00
2018-03-16T06:52:24.321Z,95.10
2018-03-16T06:54:52.291Z,95.10
2018-03-16T06:57:19.774Z,95.10
2018-03-16T06:59:47.248Z,95.10
2018-03-16T07:02:14.806Z,95.10
2018-03-16T07:04:42.277Z,95.10
2018-03-16T07:07:09.761Z,95.20
2018-03-16T07:09:37.254Z,95.20
2018-03-16T07:12:04.925Z,95.20
2018-03-16T07:14:32.440Z,95.20
2018-03-16T07:22:47.000Z,95.20
2018-03-16T07:25:14.525Z,95.20
2018-03-16T07:27:42.503Z,95.20
2018-03-16T07:30:10.355Z,95.20
2018-03-16T07:32:38.943Z,95.30
2018-03-16T07:35:06.503Z,95.30
2018-03-16T07:38:00.003Z,95.30
2018-03-16T07:40:27.554Z,95.30
2018-03-16T07:43:00.970Z,95.30
2018-03-16T07:45:34.178Z,95.30
2018-03-16T07:48:02.568Z,95.40
2018-03-16T07:50:30.017Z,95.40
2018-03-16T07:52:58.558Z,95.40
2018-03-16T07:55:26.239Z,95.40
2018-03-16T07:57:53.716Z,95.40
2018-03-16T08:00:23.027Z,95.50
2018-03-16T08:02:58.462Z,95.40
2018-03-16T08:05:26.204Z,95.40
2018-03-16T08:07:53.671Z,95.40
2018-03-16T08:10:21.165Z,95.40
2018-03-16T08:12:48.740Z,95.40
2018-03-16T08:15:16.220Z,95.40
2018-03-16T08:17:43.663Z,95.40
2018-03-16T08:20:11.182Z,95.40
2018-03-16T08:22:39.517Z,95.50
2018-03-16T08:25:07.026Z,95.50
2018-03-16T08:27:34.486Z,95.50
2018-03-16T08:30:02.033Z,95.60
2018-03-16T08:32:30.245Z,95.60
2018-03-16T08:34:57.759Z,95.50
2018-03-16T08:37:25.218Z,95.50
2018-03-16T08:39:52.729Z,95.50
2018-03-16T08:42:22.879Z,95.50
2018-03-16T08:44:50.330Z,95.50
2018-03-16T08:47:17.777Z,95.40
2018-03-16T08:49:45.386Z,95.40
2018-03-16T08:52:12.853Z,95.50
2018-03-16T08:54:40.402Z,95.50
2018-03-16T08:57:08.620Z,95.60
2018-03-16T08:59:36.133Z,95.60
2018-03-16T09:02:04.349Z,95.60
2018-03-16T09:04:31.836Z,95.60
2018-03-16T09:06:59.310Z,95.50
2018-03-16T09:09:26.760Z,95.50
2018-03-16T09:11:54.216Z,95.50
2018-03-16T09:14:21.973Z,95.40
2018-03-16T09:16:49.456Z,95.30
2018-03-16T09:19:17.705Z,95.30
2018-03-16T09:21:45.236Z,95.30
2018-03-16T09:24:12.765Z,95.30
2018-03-16T09:26:40.574Z,95.30
2018-03-16T09:29:08.062Z,95.10
2018-03-16T09:31:35.535Z,95.10
2018-03-16T09:34:03.072Z,95.00
2018-03-16T09:36:30.563Z,95.00
2018-03-16T09:38:58.013Z,95.00
2018-03-16T09:41:26.248Z,94.90
2018-03-16T09:43:53.711Z,94.90
2018-03-16T09:46:25.258Z,95.00
2018-03-16T09:48:52.742Z,94.90
2018-03-16T09:51:20.199Z,94.80
2018-03-16T09:53:47.763Z,94.70
2018-03-16T09:56:15.289Z,94.70
2018-03-16T09:58:42.775Z,94.70
2018-03-16T10:01:10.205Z,94.70
2018-03-16T10:03:37.805Z,94.60
2018-03-16T10:06:06.057Z,94.40
2018-03-16T10:08:33.526Z,94.40
2018-03-16T10:11:01.101Z,94.30
2018-03-16T10:13:28.548Z,94.30
2018-03-16T10:15:56.022Z,94.10
2018-03-16T10:18:24.292Z,93.90
2018-03-16T10:20:52.560Z,93.90
2018-03-16T10:23:20.097Z,93.80
2018-03-16T10:25:47.577Z,93.80
2018-03-16T10:28:15.046Z,93.80
2018-03-16T10:30:43.295Z,93.80
2018-03-16T10:33:10.728Z,93.70
2018-03-16T10:35:38.357Z,93.70
2018-03-16T10:38:05.820Z,93.60
2018-03-16T10:40:33.283Z,93.60
2018-03-16T10:43:00.777Z,93.50
2018-03-16T10:45:28.262Z,93.40
2018-03-16T10:47:55.733Z,93.30
2018-03-16T10:50:24.081Z,93.40
2018-03-16T10:52:51.622Z,93.40
2018-03-16T10:55:19.090Z,93.40
2018-03-16T10:57:46.561Z,93.40
2018-03-16T11:00:25.978Z,93.40
2018-03-16T11:02:53.455Z,93.30
2018-03-16T11:05:34.902Z,93.30
2018-03-16T11:08:04.374Z,93.30
2018-03-16T11:10:32.652Z,93.30
2018-03-16T11:13:00.882Z,93.30
2018-03-16T11:15:28.422Z,93.30
2018-03-16T11:17:56.030Z,93.40
2018-03-16T11:20:23.481Z,93.40
2018-03-16T11:22:50.957Z,93.50
2018-03-16T11:25:18.423Z,93.60
2018-03-16T11:27:46.653Z,93.60
2018-03-16T11:30:14.217Z,93.50
2018-03-16T11:32:41.625Z,93.60
2018-03-16T11:35:09.109Z,93.60
2018-03-16T11:37:41.535Z,93.60
2018-03-16T11:40:09.022Z,93.70
2018-03-16T11:42:36.478Z,93.80
2018-03-16T11:45:03.977Z,93.80
2018-03-16T11:47:31.447Z,93.80
2018-03-16T11:50:04.135Z,93.90
2018-03-16T11:52:31.630Z,94.00
2018-03-16T11:54:59.315Z,94.00
2018-03-16T11:57:26.797Z,94.10
2018-03-16T11:59:54.316Z,94.10
2018-03-16T12:02:21.790Z,94.10
2018-03-16T12:04:49.326Z,94.10
2018-03-16T12:07:17.218Z,94.10
2018-03-16T12:09:44.751Z,94.10
2018-03-16T12:12:12.235Z,94.10
2018-03-16T12:14:39.785Z,94.10
2018-03-16T12:17:07.253Z,94.10
2018-03-16T12:19:34.745Z,94.10
2018-03-16T12:22:02.281Z,94.10
2018-03-16T12:24:29.760Z,94.10
2018-03-16T12:26:57.249Z,94.20
2018-03-16T12:29:25.906Z,94.30
2018-03-16T12:31:53.402Z,94.20
2018-03-16T12:34:21.623Z,94.30
2018-03-16T12:36:49.150Z,94.30
2018-03-16T12:39:16.606Z,94.30
2018-03-16T12:41:44.115Z,94.40
2018-03-16T12:44:11.607Z,94.40
2018-03-16T12:46:39.853Z,94.50
2018-03-16T12:49:07.397Z,94.50
2018-03-16T12:51:42.079Z,94.60
2018-03-16T12:54:02.349Z,94.60
2018-03-16T12:56:34.471Z,94.50
2018-03-16T12:59:01.968Z,94.50
2018-03-16T13:01:35.382Z,94.50
2018-03-16T13:04:02.920Z,94.50
2018-03-16T13:06:30.400Z,94.50
2018-03-16T13:08:58.793Z,94.50
2018-03-16T13:11:26.277Z,94.50
2018-03-16T13:13:53.813Z,94.50
2018-03-16T13:16:21.325Z,94.50
2018-03-16T13:18:48.896Z,94.50
2018-03-16T13:21:17.293Z,94.40
2018-03-16T13:23:44.764Z,94.40
2018-03-16T13:26:12.377Z,94.50
2018-03-16T13:28:39.896Z,94.40
2018-03-16T13:31:07.374Z,94.30
2018-03-16T13:33:34.928Z,94.30
2018-03-16T13:36:02.694Z,94.40
2018-03-16T13:38:30.200Z,94.40
2018-03-16T13:40:57.819Z,94.40
2018-03-16T13:43:26.172Z,94.30
2018-03-16T13:45:53.682Z,94.40
2018-03-16T13:48:21.203Z,94.40
2018-03-16T13:50:48.681Z,94.40
2018-03-16T13:53:16.161Z,94.30
2018-03-16T13:55:43.744Z,94.30
2018-03-16T13:58:12.549Z,94.40
2018-03-16T14:00:40.291Z,94.30
2018-03-16T14:20:13.495Z,94.20
2018-03-16T14:22:40.969Z,94.30
2018-03-16T14:25:09.237Z,94.20
2018-03-16T14:27:37.522Z,94.20
2018-03-16T14:30:05.867Z,94.20
2018-03-16T14:32:33.488Z,94.20
2018-03-16T14:52:06.415Z,94.00
2018-03-16T14:54:33.960Z,94.10
2018-03-16T15:14:05.342Z,94.10
2018-03-16T15:16:32.852Z,94.10
2018-03-16T15:19:00.404Z,94.10
2018-03-16T15:21:28.026Z,94.10
2018-03-16T15:23:55.516Z,94.10
2018-03-16T15:26:23.056Z,94.10
2018-03-16T15:28:50.582Z,94.10
2018-03-16T15:31:18.102Z,94.10
2018-03-16T15:33:46.421Z,94.00
2018-03-16T15:36:13.917Z,94.00
2018-03-16T15:38:41.659Z,94.00
2018-03-16T15:41:09.207Z,93.90
2018-03-16T15:43:36.726Z,93.80
2018-03-16T15:46:04.314Z,94.10
2018-03-16T15:48:31.798Z,93.90
2018-03-16T15:50:59.452Z,94.20
2018-03-16T15:53:26.945Z,93.90
2018-03-16T15:55:55.286Z,94.00
2018-03-16T15:58:23.692Z,94.00
2018-03-16T16:00:51.248Z,94.00
2018-03-16T16:20:23.993Z,94.00
2018-03-16T16:22:52.405Z,94.00
2018-03-16T16:25:19.950Z,94.00
2018-03-16T16:27:47.477Z,94.00
2018-03-16T16:47:20.684Z,93.90
2018-03-16T16:49:49.133Z,93.90
2018-03-16T17:03:39.872Z,94.00
2018-03-16T17:06:07.485Z,93.90
2018-03-16T17:08:34.962Z,93.90
2018-03-16T17:11:03.413Z,94.00
2018-03-16T17:19:21.002Z,93.90
2018-03-16T17:21:49.558Z,94.30
2018-03-16T17:24:18.884Z,94.00
2018-03-16T17:26:47.275Z,94.00
2018-03-16T17:29:14.806Z,94.00
2018-03-16T17:31:42.299Z,94.00
2018-03-16T17:34:09.938Z,94.10
2018-03-16T17:36:38.230Z,94.10
2018-03-16T17:39:06.478Z,94.20
2018-03-16T17:41:33.977Z,94.20
2018-03-16T17:47:11.188Z,94.20
2018-03-16T17:49:39.800Z,94.30
2018-03-16T17:52:08.049Z,94.20
2018-03-16T17:54:35.945Z,94.20
2018-03-16T17:57:03.433Z,94.20
2018-03-16T17:59:30.962Z,94.20
2018-03-16T18:01:58.485Z,94.20
2018-03-16T18:04:25.954Z,94.30
2018-03-16T18:21:24.767Z,94.40
2018-03-16T18:23:52.238Z,94.40
2018-03-16T18:26:20.304Z,94.50
2018-03-16T18:28:48.336Z,94.50
2018-03-16T18:31:16.599Z,94.60
2018-03-16T18:33:44.249Z,94.60
2018-03-16T18:36:11.793Z,94.60
2018-03-16T18:44:20.977Z,94.60
2018-03-16T18:46:48.451Z,94.70
2018-03-16T18:49:16.659Z,94.70
2018-03-16T18:51:44.209Z,94.70
2018-03-16T18:54:16.592Z,94.60
2018-03-16T18:56:44.033Z,94.60
2018-03-16T18:59:11.562Z,94.60
2018-03-16T19:01:39.041Z,94.70
2018-03-16T19:04:07.253Z,94.60
2018-03-16T19:06:34.805Z,94.60
2018-03-16T19:09:10.708Z,94.60
2018-03-16T19:11:38.159Z,94.60
2018-03-16T19:14:06.024Z,94.70
2018-03-16T19:16:33.477Z,94.70
2018-03-16T19:19:00.941Z,94.60
2018-03-16T19:21:28.569Z,94.60
2018-03-16T19:23:56.793Z,94.70
2018-03-16T19:26:25.029Z,94.70
2018-03-16T19:28:58.737Z,94.70
2018-03-16T19:31:26.213Z,94.70
2018-03-16T19:33:53.694Z,94.70
2018-03-16T19:36:22.020Z,94.70
2018-03-16T19:38:49.562Z,94.60
2018-03-16T19:41:17.052Z,94.70
2018-03-16T19:43:44.541Z,94.60
2018-03-16T19:52:11.074Z,94.60
2018-03-16T19:54:38.590Z,94.60
2018-03-16T19:57:07.006Z,94.60
2018-03-16T20:02:25.981Z,94.60
2018-03-16T20:04:53.586Z,94.50
2018-03-16T20:07:21.188Z,94.50
2018-03-16T20:09:48.685Z,94.50
2018-03-16T20:12:16.146Z,94.50
2018-03-16T20:14:44.048Z,94.50
2018-03-16T20:17:11.609Z,94.50
2018-03-16T20:19:39.030Z,94.50
2018-03-16T20:22:06.595Z,94.50
2018-03-16T20:24:34.078Z,94.50
2018-03-16T20:27:02.388Z,94.70
2018-03-16T20:29:30.234Z,94.50
2018-03-16T20:31:58.454Z,94.80
2018-03-16T20:34:25.918Z,94.50
2018-03-16T20:36:53.705Z,94.50
2018-03-16T20:39:21.134Z,94.50
2018-03-16T20:41:48.602Z,94.50
2018-03-16T20:44:16.227Z,94.50
2018-03-16T20:46:43.955Z,94.60
2018-03-16T20:49:11.493Z,94.70
2018-03-16T20:51:38.965Z,94.70
2018-03-16T20:54:06.447Z,94.70
2018-03-16T20:56:34.712Z,94.70
2018-03-16T20:59:02.228Z,94.60
2018-03-16T21:01:29.681Z,94.60
2018-03-16T21:03:57.308Z,94.50
2018-03-16T21:06:25.527Z,94.40
2018-03-16T21:08:53.002Z,94.40
2018-03-16T21:11:20.481Z,94.40
2018-03-16T21:13:48.717Z,94.40
2018-03-16T21:16:16.505Z,94.40
2018-03-16T21:18:43.981Z,94.40
2018-03-16T21:21:12.219Z,94.30
2018-03-16T21:23:40.107Z,94.30
2018-03-16T21:26:07.562Z,94.30
2018-03-16T21:28:35.022Z,94.30
2018-03-16T21:31:02.553Z,94.20
2018-03-16T21:33:30.054Z,94.10
2018-03-16T21:35:57.509Z,94.20
2018-03-16T21:38:25.053Z,94.10
2018-03-16T21:40:52.517Z,94.30
2018-03-16T21:43:29.009Z,94.10
2018-03-16T21:45:57.266Z,94.00
2018-03-16T21:48:24.757Z,93.90
2018-03-16T21:50:52.226Z,93.90
2018-03-16T21:53:19.746Z,94.00
2018-03-16T21:55:47.370Z,94.00
2018-03-16T21:58:14.840Z,94.10
2018-03-16T22:00:42.450Z,94.00
2018-03-16T22:03:10.672Z,93.90
2018-03-16T22:05:50.961Z,93.90
2018-03-16T22:08:18.487Z,93.80
2018-03-16T22:10:46.004Z,93.80
2018-03-16T22:13:14.235Z,93.90
2018-03-16T22:15:41.933Z,93.90
2018-03-16T22:18:10.195Z,93.90
2018-03-16T22:20:37.675Z,93.90
2018-03-16T22:23:06.639Z,93.90
2018-03-16T22:25:34.166Z,93.90
2018-03-16T22:28:01.974Z,93.90
2018-03-16T22:30:42.185Z,94.10
2018-03-16T22:33:10.510Z,94.10
2018-03-16T22:35:38.782Z,94.20
2018-03-16T22:38:06.261Z,94.20
2018-03-16T22:40:33.758Z,94.20
2018-03-16T22:45:53.395Z,94.40
2018-03-16T22:48:21.113Z,94.40
2018-03-16T22:53:40.550Z,94.40
2018-03-16T23:01:47.890Z,94.30
2018-03-16T23:04:16.191Z,94.40
2018-03-16T23:06:43.605Z,94.40
2018-03-16T23:09:11.082Z,94.40
2018-03-16T23:11:39.396Z,94.40
2018-03-16T23:14:06.867Z,94.40
2018-03-16T23:16:34.382Z,94.40
2018-03-16T23:19:02.640Z,94.30
2018-03-16T23:21:30.898Z,94.30
2018-03-16T23:27:11.611Z,94.00
2018-03-16T23:29:39.856Z,94.00
2018-03-16T23:32:07.386Z,94.00
2018-03-16T23:34:34.859Z,94.00
2018-03-16T23:37:02.585Z,94.30
2018-03-16T23:39:34.057Z,94.00
2018-03-16T23:42:02.426Z,94.10
2018-03-16T23:44:29.898Z,94.00
2018-03-16T23:46:57.432Z,94.00
2018-03-16T23:49:24.944Z,93.90
2018-03-16T23:51:52.437Z,93.70
2018-03-16T23:54:20.674Z,93.70
2018-03-16T23:56:48.467Z,93.60
2018-03-16T23:59:16.018Z,93.70
